sensor_id;sensor_type;location;lat;lon;timestamp;P1;durP1;ratioP1;P2;durP2;ratioP2
16845;SDS011;8539;53.188;8.696;2023-02-23T00:01:39;51.17;;;27.38;;
16845;SDS011;8539;53.188;8.696;2023-02-23T00:04:06;48.20;;;25.98;;
16845;SDS011;8539;53.188;8.696;2023-02-23T00:06:33;42.40;;;25.02;;
16845;SDS011;8539;53.188;8.696;2023-02-23T00:09:01;48.67;;;26.52;;
16845;SDS011;8539;53.188;8.696;2023-02-23T00:11:31;54.60;;;27.13;;
16845;SDS011;8539;53.188;8.696;2023-02-23T00:13:58;57.28;;;28.92;;
16845;SDS011;8539;53.188;8.696;2023-02-23T00:16:25;58.45;;;30.27;;
16845;SDS011;8539;53.188;8.696;2023-02-23T00:18:53;56.42;;;30.83;;
16845;SDS011;8539;53.188;8.696;2023-02-23T00:21:25;53.63;;;27.60;;
16845;SDS011;8539;53.188;8.696;2023-02-23T00:24:06;51.67;;;29.45;;
16845;SDS011;8539;53.188;8.696;2023-02-23T00:26:37;54.35;;;28.95;;
16845;SDS011;8539;53.188;8.696;2023-02-23T00:29:05;54.45;;;32.10;;
16845;SDS011;8539;53.188;8.696;2023-02-23T00:31:37;70.82;;;34.55;;
16845;SDS011;8539;53.188;8.696;2023-02-23T00:34:06;61.95;;;30.80;;
16845;SDS011;8539;53.188;8.696;2023-02-23T00:36:32;71.63;;;34.33;;
16845;SDS011;8539;53.188;8.696;2023-02-23T00:39:00;72.55;;;34.28;;
16845;SDS011;8539;53.188;8.696;2023-02-23T00:41:41;59.78;;;31.13;;
16845;SDS011;8539;53.188;8.696;2023-02-23T00:44:10;66.57;;;34.13;;
16845;SDS011;8539;53.188;8.696;2023-02-23T00:46:40;61.13;;;30.63;;
16845;SDS011;8539;53.188;8.696;2023-02-23T00:49:08;57.05;;;30.23;;
16845;SDS011;8539;53.188;8.696;2023-02-23T00:51:37;62.95;;;34.30;;
16845;SDS011;8539;53.188;8.696;2023-02-23T00:54:04;80.82;;;38.42;;
16845;SDS011;8539;53.188;8.696;2023-02-23T00:56:31;75.25;;;36.05;;
16845;SDS011;8539;53.188;8.696;2023-02-23T00:58:57;68.93;;;36.70;;
16845;SDS011;8539;53.188;8.696;2023-02-23T01:01:24;72.13;;;33.80;;
16845;SDS011;8539;53.188;8.696;2023-02-23T01:03:51;75.18;;;37.08;;
16845;SDS011;8539;53.188;8.696;2023-02-23T01:06:20;66.35;;;34.85;;
16845;SDS011;8539;53.188;8.696;2023-02-23T01:08:47;77.57;;;34.75;;
16845;SDS011;8539;53.188;8.696;2023-02-23T01:11:26;62.45;;;32.05;;
16845;SDS011;8539;53.188;8.696;2023-02-23T01:13:54;61.00;;;33.20;;
16845;SDS011;8539;53.188;8.696;2023-02-23T01:16:22;61.83;;;35.13;;
16845;SDS011;8539;53.188;8.696;2023-02-23T01:18:52;58.20;;;31.98;;
16845;SDS011;8539;53.188;8.696;2023-02-23T01:21:21;71.28;;;36.30;;
16845;SDS011;8539;53.188;8.696;2023-02-23T01:23:50;61.70;;;34.13;;
16845;SDS011;8539;53.188;8.696;2023-02-23T01:26:20;61.25;;;30.00;;
16845;SDS011;8539;53.188;8.696;2023-02-23T01:28:52;60.92;;;32.70;;
16845;SDS011;8539;53.188;8.696;2023-02-23T01:31:20;67.60;;;33.90;;
16845;SDS011;8539;53.188;8.696;2023-02-23T01:33:51;66.18;;;36.00;;
16845;SDS011;8539;53.188;8.696;2023-02-23T01:36:19;68.65;;;33.58;;
16845;SDS011;8539;53.188;8.696;2023-02-23T01:38:45;61.55;;;32.22;;
16845;SDS011;8539;53.188;8.696;2023-02-23T01:41:11;64.10;;;34.58;;
16845;SDS011;8539;53.188;8.696;2023-02-23T01:46:39;69.63;;;33.15;;
16845;SDS011;8539;53.188;8.696;2023-02-23T01:49:08;64.45;;;33.17;;
16845;SDS011;8539;53.188;8.696;2023-02-23T01:51:42;63.67;;;34.72;;
16845;SDS011;8539;53.188;8.696;2023-02-23T01:54:13;74.38;;;34.83;;
16845;SDS011;8539;53.188;8.696;2023-02-23T01:56:45;69.35;;;33.20;;
16845;SDS011;8539;53.188;8.696;2023-02-23T01:59:15;69.78;;;34.03;;
16845;SDS011;8539;53.188;8.696;2023-02-23T02:01:42;67.03;;;32.83;;
16845;SDS011;8539;53.188;8.696;2023-02-23T02:04:11;69.75;;;34.53;;
16845;SDS011;8539;53.188;8.696;2023-02-23T02:06:42;72.18;;;35.38;;
16845;SDS011;8539;53.188;8.696;2023-02-23T02:09:12;74.57;;;35.13;;
16845;SDS011;8539;53.188;8.696;2023-02-23T02:11:44;81.65;;;37.03;;
16845;SDS011;8539;53.188;8.696;2023-02-23T02:14:12;67.68;;;32.92;;
16845;SDS011;8539;53.188;8.696;2023-02-23T02:34:12;76.38;;;34.38;;
16845;SDS011;8539;53.188;8.696;2023-02-23T02:40:06;70.85;;;33.75;;
16845;SDS011;8539;53.188;8.696;2023-02-23T02:56:32;76.32;;;36.13;;
16845;SDS011;8539;53.188;8.696;2023-02-23T02:59:06;68.35;;;35.28;;
16845;SDS011;8539;53.188;8.696;2023-02-23T03:01:56;72.95;;;37.03;;
16845;SDS011;8539;53.188;8.696;2023-02-23T03:04:41;67.13;;;33.05;;
16845;SDS011;8539;53.188;8.696;2023-02-23T03:07:28;80.15;;;35.65;;
16845;SDS011;8539;53.188;8.696;2023-02-23T03:10:25;65.65;;;33.13;;
16845;SDS011;8539;53.188;8.696;2023-02-23T03:16:36;70.63;;;32.95;;
16845;SDS011;8539;53.188;8.696;2023-02-23T03:19:56;70.30;;;34.08;;
16845;SDS011;8539;53.188;8.696;2023-02-23T03:22:55;75.00;;;35.00;;
16845;SDS011;8539;53.188;8.696;2023-02-23T03:26:01;71.28;;;34.85;;
16845;SDS011;8539;53.188;8.696;2023-02-23T03:29:04;68.72;;;34.75;;
16845;SDS011;8539;53.188;8.696;2023-02-23T03:32:13;72.28;;;34.75;;
16845;SDS011;8539;53.188;8.696;2023-02-23T03:38:10;76.55;;;34.70;;
16845;SDS011;8539;53.188;8.696;2023-02-23T03:41:12;76.32;;;34.65;;
16845;SDS011;8539;53.188;8.696;2023-02-23T03:44:02;67.22;;;34.13;;
16845;SDS011;8539;53.188;8.696;2023-02-23T03:46:53;76.45;;;35.47;;
16845;SDS011;8539;53.188;8.696;2023-02-23T03:49:40;77.15;;;35.92;;
16845;SDS011;8539;53.188;8.696;2023-02-23T03:52:28;73.55;;;34.53;;
16845;SDS011;8539;53.188;8.696;2023-02-23T03:55:20;79.80;;;35.35;;
16845;SDS011;8539;53.188;8.696;2023-02-23T03:58:10;74.13;;;35.47;;
16845;SDS011;8539;53.188;8.696;2023-02-23T04:00:58;82.22;;;36.28;;
16845;SDS011;8539;53.188;8.696;2023-02-23T04:03:46;80.28;;;35.35;;
16845;SDS011;8539;53.188;8.696;2023-02-23T04:06:35;81.72;;;35.60;;
16845;SDS011;8539;53.188;8.696;2023-02-23T04:09:23;81.50;;;35.03;;
16845;SDS011;8539;53.188;8.696;2023-02-23T04:12:09;78.82;;;36.53;;
16845;SDS011;8539;53.188;8.696;2023-02-23T04:17:39;84.32;;;36.40;;
16845;SDS011;8539;53.188;8.696;2023-02-23T04:20:08;77.90;;;36.10;;
16845;SDS011;8539;53.188;8.696;2023-02-23T04:22:36;78.75;;;36.83;;
16845;SDS011;8539;53.188;8.696;2023-02-23T04:25:03;78.63;;;35.78;;
16845;SDS011;8539;53.188;8.696;2023-02-23T04:27:30;72.50;;;33.33;;
16845;SDS011;8539;53.188;8.696;2023-02-23T04:29:56;76.72;;;35.25;;
16845;SDS011;8539;53.188;8.696;2023-02-23T04:32:23;69.22;;;31.92;;
16845;SDS011;8539;53.188;8.696;2023-02-23T04:34:49;67.97;;;31.85;;
16845;SDS011;8539;53.188;8.696;2023-02-23T04:37:15;69.20;;;33.72;;
16845;SDS011;8539;53.188;8.696;2023-02-23T04:39:41;77.82;;;36.47;;
16845;SDS011;8539;53.188;8.696;2023-02-23T04:42:13;64.53;;;33.88;;
16845;SDS011;8539;53.188;8.696;2023-02-23T04:44:39;82.35;;;35.45;;
16845;SDS011;8539;53.188;8.696;2023-02-23T04:47:05;73.90;;;35.17;;
16845;SDS011;8539;53.188;8.696;2023-02-23T04:49:31;70.03;;;33.67;;
16845;SDS011;8539;53.188;8.696;2023-02-23T04:51:57;79.10;;;34.80;;
16845;SDS011;8539;53.188;8.696;2023-02-23T04:54:24;82.13;;;32.50;;
16845;SDS011;8539;53.188;8.696;2023-02-23T04:56:50;75.07;;;33.40;;
16845;SDS011;8539;53.188;8.696;2023-02-23T04:59:17;81.35;;;33.10;;
16845;SDS011;8539;53.188;8.696;2023-02-23T05:01:43;75.72;;;33.63;;
16845;SDS011;8539;53.188;8.696;2023-02-23T05:04:09;72.60;;;33.50;;
16845;SDS011;8539;53.188;8.696;2023-02-23T05:06:35;67.78;;;34.80;;
16845;SDS011;8539;53.188;8.696;2023-02-23T05:09:02;64.13;;;31.33;;
16845;SDS011;8539;53.188;8.696;2023-02-23T05:11:29;73.85;;;33.40;;
16845;SDS011;8539;53.188;8.696;2023-02-23T05:13:55;75.05;;;33.00;;
16845;SDS011;8539;53.188;8.696;2023-02-23T05:16:21;78.00;;;36.25;;
16845;SDS011;8539;53.188;8.696;2023-02-23T05:18:49;75.15;;;31.15;;
16845;SDS011;8539;53.188;8.696;2023-02-23T05:21:16;67.53;;;30.83;;
16845;SDS011;8539;53.188;8.696;2023-02-23T05:23:42;75.80;;;34.80;;
16845;SDS011;8539;53.188;8.696;2023-02-23T05:26:09;75.38;;;33.25;;
16845;SDS011;8539;53.188;8.696;2023-02-23T05:28:37;92.40;;;35.70;;
16845;SDS011;8539;53.188;8.696;2023-02-23T05:31:06;87.40;;;36.00;;
16845;SDS011;8539;53.188;8.696;2023-02-23T05:33:32;81.78;;;34.42;;
16845;SDS011;8539;53.188;8.696;2023-02-23T05:36:10;83.75;;;37.67;;
16845;SDS011;8539;53.188;8.696;2023-02-23T05:38:37;77.45;;;33.03;;
16845;SDS011;8539;53.188;8.696;2023-02-23T05:41:08;90.25;;;36.38;;
16845;SDS011;8539;53.188;8.696;2023-02-23T05:43:35;74.15;;;35.13;;
16845;SDS011;8539;53.188;8.696;2023-02-23T05:46:08;82.32;;;35.80;;
16845;SDS011;8539;53.188;8.696;2023-02-23T05:48:36;81.13;;;35.03;;
16845;SDS011;8539;53.188;8.696;2023-02-23T05:51:07;79.80;;;34.42;;
16845;SDS011;8539;53.188;8.696;2023-02-23T05:53:35;82.93;;;34.35;;
16845;SDS011;8539;53.188;8.696;2023-02-23T05:56:02;87.50;;;37.83;;
16845;SDS011;8539;53.188;8.696;2023-02-23T05:58:29;91.50;;;37.63;;
16845;SDS011;8539;53.188;8.696;2023-02-23T06:00:56;86.45;;;36.58;;
16845;SDS011;8539;53.188;8.696;2023-02-23T06:03:22;89.03;;;35.65;;
16845;SDS011;8539;53.188;8.696;2023-02-23T06:05:51;95.55;;;37.35;;
16845;SDS011;8539;53.188;8.696;2023-02-23T06:08:19;92.30;;;37.03;;
16845;SDS011;8539;53.188;8.696;2023-02-23T06:10:45;92.93;;;37.47;;
16845;SDS011;8539;53.188;8.696;2023-02-23T06:13:12;90.00;;;39.47;;
16845;SDS011;8539;53.188;8.696;2023-02-23T06:15:39;85.68;;;36.53;;
16845;SDS011;8539;53.188;8.696;2023-02-23T06:18:06;86.25;;;35.47;;
16845;SDS011;8539;53.188;8.696;2023-02-23T06:20:33;92.15;;;37.28;;
16845;SDS011;8539;53.188;8.696;2023-02-23T06:23:00;91.68;;;35.63;;
16845;SDS011;8539;53.188;8.696;2023-02-23T06:25:26;94.35;;;37.85;;
16845;SDS011;8539;53.188;8.696;2023-02-23T06:27:52;87.07;;;37.55;;
16845;SDS011;8539;53.188;8.696;2023-02-23T06:30:19;88.80;;;38.70;;
16845;SDS011;8539;53.188;8.696;2023-02-23T06:32:45;102.63;;;38.08;;
16845;SDS011;8539;53.188;8.696;2023-02-23T06:35:11;85.60;;;35.53;;
16845;SDS011;8539;53.188;8.696;2023-02-23T06:37:37;90.10;;;38.42;;
16845;SDS011;8539;53.188;8.696;2023-02-23T06:40:04;89.45;;;35.95;;
16845;SDS011;8539;53.188;8.696;2023-02-23T06:42:31;99.32;;;40.97;;
16845;SDS011;8539;53.188;8.696;2023-02-23T06:45:00;113.05;;;40.63;;
16845;SDS011;8539;53.188;8.696;2023-02-23T06:47:27;97.45;;;39.72;;
16845;SDS011;8539;53.188;8.696;2023-02-23T06:49:53;98.80;;;38.47;;
16845;SDS011;8539;53.188;8.696;2023-02-23T06:52:19;97.93;;;42.60;;
16845;SDS011;8539;53.188;8.696;2023-02-23T06:54:45;99.13;;;42.08;;
16845;SDS011;8539;53.188;8.696;2023-02-23T06:57:14;98.38;;;38.38;;
16845;SDS011;8539;53.188;8.696;2023-02-23T06:59:40;106.65;;;40.95;;
16845;SDS011;8539;53.188;8.696;2023-02-23T07:02:09;96.32;;;39.13;;
16845;SDS011;8539;53.188;8.696;2023-02-23T07:04:37;118.82;;;43.95;;
16845;SDS011;8539;53.188;8.696;2023-02-23T07:07:03;110.70;;;43.78;;
16845;SDS011;8539;53.188;8.696;2023-02-23T07:09:29;110.30;;;44.00;;
16845;SDS011;8539;53.188;8.696;2023-02-23T07:11:56;117.10;;;45.42;;
16845;SDS011;8539;53.188;8.696;2023-02-23T07:14:22;111.47;;;43.83;;
16845;SDS011;8539;53.188;8.696;2023-02-23T07:16:48;121.80;;;46.88;;
16845;SDS011;8539;53.188;8.696;2023-02-23T07:19:14;104.80;;;41.83;;
16845;SDS011;8539;53.188;8.696;2023-02-23T07:21:40;107.03;;;42.63;;
16845;SDS011;8539;53.188;8.696;2023-02-23T07:24:06;118.15;;;45.25;;
16845;SDS011;8539;53.188;8.696;2023-02-23T07:26:33;118.88;;;44.95;;
16845;SDS011;8539;53.188;8.696;2023-02-23T07:28:59;119.82;;;47.83;;
16845;SDS011;8539;53.188;8.696;2023-02-23T07:31:26;122.53;;;48.72;;
16845;SDS011;8539;53.188;8.696;2023-02-23T07:33:53;118.95;;;45.00;;
16845;SDS011;8539;53.188;8.696;2023-02-23T07:36:20;133.63;;;46.60;;
16845;SDS011;8539;53.188;8.696;2023-02-23T07:38:47;118.65;;;47.25;;
16845;SDS011;8539;53.188;8.696;2023-02-23T07:41:13;116.85;;;46.00;;
16845;SDS011;8539;53.188;8.696;2023-02-23T07:43:39;121.28;;;46.50;;
16845;SDS011;8539;53.188;8.696;2023-02-23T07:46:05;118.25;;;46.05;;
16845;SDS011;8539;53.188;8.696;2023-02-23T07:48:32;147.40;;;51.17;;
16845;SDS011;8539;53.188;8.696;2023-02-23T07:50:59;139.90;;;50.20;;
16845;SDS011;8539;53.188;8.696;2023-02-23T07:53:25;118.05;;;47.50;;
16845;SDS011;8539;53.188;8.696;2023-02-23T07:55:58;128.65;;;52.92;;
16845;SDS011;8539;53.188;8.696;2023-02-23T07:58:26;136.57;;;50.28;;
16845;SDS011;8539;53.188;8.696;2023-02-23T08:00:52;126.68;;;48.10;;
16845;SDS011;8539;53.188;8.696;2023-02-23T08:03:18;139.63;;;53.67;;
16845;SDS011;8539;53.188;8.696;2023-02-23T08:05:45;130.02;;;48.38;;
16845;SDS011;8539;53.188;8.696;2023-02-23T08:08:11;131.13;;;47.38;;
16845;SDS011;8539;53.188;8.696;2023-02-23T08:10:37;127.30;;;46.38;;
16845;SDS011;8539;53.188;8.696;2023-02-23T08:13:04;126.38;;;45.30;;
16845;SDS011;8539;53.188;8.696;2023-02-23T08:15:31;132.52;;;46.50;;
16845;SDS011;8539;53.188;8.696;2023-02-23T08:17:58;120.45;;;46.15;;
16845;SDS011;8539;53.188;8.696;2023-02-23T08:20:24;109.28;;;43.90;;
16845;SDS011;8539;53.188;8.696;2023-02-23T08:22:53;153.82;;;52.40;;
16845;SDS011;8539;53.188;8.696;2023-02-23T08:25:20;130.27;;;48.60;;
16845;SDS011;8539;53.188;8.696;2023-02-23T08:27:46;164.65;;;50.40;;
16845;SDS011;8539;53.188;8.696;2023-02-23T08:30:13;151.93;;;47.75;;
16845;SDS011;8539;53.188;8.696;2023-02-23T08:32:39;189.38;;;52.20;;
16845;SDS011;8539;53.188;8.696;2023-02-23T08:35:06;173.13;;;56.13;;
16845;SDS011;8539;53.188;8.696;2023-02-23T08:37:34;163.48;;;49.45;;
16845;SDS011;8539;53.188;8.696;2023-02-23T08:40:00;156.70;;;51.42;;
16845;SDS011;8539;53.188;8.696;2023-02-23T08:42:28;182.73;;;55.05;;
16845;SDS011;8539;53.188;8.696;2023-02-23T08:44:54;162.90;;;53.33;;
16845;SDS011;8539;53.188;8.696;2023-02-23T08:47:20;164.70;;;53.05;;
16845;SDS011;8539;53.188;8.696;2023-02-23T08:49:48;165.10;;;53.90;;
16845;SDS011;8539;53.188;8.696;2023-02-23T08:52:15;185.48;;;54.95;;
16845;SDS011;8539;53.188;8.696;2023-02-23T08:54:41;158.25;;;51.55;;
16845;SDS011;8539;53.188;8.696;2023-02-23T08:57:07;175.23;;;52.58;;
16845;SDS011;8539;53.188;8.696;2023-02-23T08:59:33;151.52;;;49.30;;
16845;SDS011;8539;53.188;8.696;2023-02-23T09:01:59;153.60;;;50.80;;
16845;SDS011;8539;53.188;8.696;2023-02-23T09:04:25;163.90;;;52.90;;
16845;SDS011;8539;53.188;8.696;2023-02-23T09:06:51;150.60;;;48.75;;
16845;SDS011;8539;53.188;8.696;2023-02-23T09:09:18;147.77;;;46.85;;
16845;SDS011;8539;53.188;8.696;2023-02-23T09:11:44;146.23;;;48.92;;
16845;SDS011;8539;53.188;8.696;2023-02-23T09:14:11;152.35;;;50.67;;
16845;SDS011;8539;53.188;8.696;2023-02-23T09:16:37;136.57;;;44.83;;
16845;SDS011;8539;53.188;8.696;2023-02-23T09:19:03;148.70;;;50.22;;
16845;SDS011;8539;53.188;8.696;2023-02-23T09:21:29;141.40;;;48.30;;
16845;SDS011;8539;53.188;8.696;2023-02-23T09:23:58;132.52;;;47.15;;
16845;SDS011;8539;53.188;8.696;2023-02-23T09:26:25;133.73;;;45.13;;
16845;SDS011;8539;53.188;8.696;2023-02-23T09:28:52;127.85;;;45.08;;
16845;SDS011;8539;53.188;8.696;2023-02-23T09:31:20;115.68;;;44.17;;
16845;SDS011;8539;53.188;8.696;2023-02-23T09:33:48;114.10;;;44.17;;
16845;SDS011;8539;53.188;8.696;2023-02-23T09:36:19;117.93;;;43.40;;
16845;SDS011;8539;53.188;8.696;2023-02-23T09:38:48;129.73;;;42.97;;
16845;SDS011;8539;53.188;8.696;2023-02-23T09:44:13;102.47;;;38.03;;
16845;SDS011;8539;53.188;8.696;2023-02-23T09:47:17;102.38;;;37.92;;
16845;SDS011;8539;53.188;8.696;2023-02-23T09:49:52;105.90;;;37.50;;
16845;SDS011;8539;53.188;8.696;2023-02-23T09:52:23;97.30;;;36.90;;
16845;SDS011;8539;53.188;8.696;2023-02-23T09:54:52;88.68;;;36.10;;
16845;SDS011;8539;53.188;8.696;2023-02-23T09:57:24;107.18;;;36.63;;
16845;SDS011;8539;53.188;8.696;2023-02-23T10:00:01;95.40;;;34.83;;
16845;SDS011;8539;53.188;8.696;2023-02-23T10:05:08;88.47;;;33.97;;
16845;SDS011;8539;53.188;8.696;2023-02-23T10:07:55;86.47;;;33.20;;
16845;SDS011;8539;53.188;8.696;2023-02-23T10:16:14;94.25;;;36.78;;
16845;SDS011;8539;53.188;8.696;2023-02-23T10:21:30;104.35;;;37.88;;
16845;SDS011;8539;53.188;8.696;2023-02-23T10:24:02;91.25;;;33.95;;
16845;SDS011;8539;53.188;8.696;2023-02-23T10:26:40;113.10;;;37.65;;
16845;SDS011;8539;53.188;8.696;2023-02-23T10:29:32;118.00;;;40.65;;
16845;SDS011;8539;53.188;8.696;2023-02-23T10:32:04;112.75;;;39.03;;
16845;SDS011;8539;53.188;8.696;2023-02-23T10:34:36;104.38;;;35.97;;
16845;SDS011;8539;53.188;8.696;2023-02-23T10:37:04;116.85;;;39.05;;
16845;SDS011;8539;53.188;8.696;2023-02-23T10:39:35;113.70;;;39.33;;
16845;SDS011;8539;53.188;8.696;2023-02-23T10:42:02;112.32;;;35.85;;
16845;SDS011;8539;53.188;8.696;2023-02-23T10:44:32;123.57;;;38.67;;
16845;SDS011;8539;53.188;8.696;2023-02-23T10:47:02;127.32;;;38.28;;
16845;SDS011;8539;53.188;8.696;2023-02-23T10:49:52;131.90;;;40.05;;
16845;SDS011;8539;53.188;8.696;2023-02-23T10:55:02;120.85;;;40.65;;
16845;SDS011;8539;53.188;8.696;2023-02-23T10:57:31;124.68;;;42.40;;
16845;SDS011;8539;53.188;8.696;2023-02-23T11:02:41;125.57;;;41.47;;
16845;SDS011;8539;53.188;8.696;2023-02-23T11:05:26;132.85;;;40.25;;
16845;SDS011;8539;53.188;8.696;2023-02-23T11:13:53;123.00;;;41.45;;
16845;SDS011;8539;53.188;8.696;2023-02-23T11:16:22;133.90;;;41.40;;
16845;SDS011;8539;53.188;8.696;2023-02-23T11:18:56;137.32;;;42.65;;
16845;SDS011;8539;53.188;8.696;2023-02-23T11:21:28;126.43;;;39.80;;
16845;SDS011;8539;53.188;8.696;2023-02-23T11:27:03;128.20;;;40.00;;
16845;SDS011;8539;53.188;8.696;2023-02-23T11:29:36;125.28;;;40.88;;
16845;SDS011;8539;53.188;8.696;2023-02-23T11:32:08;144.80;;;45.33;;
16845;SDS011;8539;53.188;8.696;2023-02-23T11:34:38;130.35;;;42.15;;
16845;SDS011;8539;53.188;8.696;2023-02-23T11:39:55;138.60;;;45.97;;
16845;SDS011;8539;53.188;8.696;2023-02-23T11:42:29;149.43;;;43.80;;
16845;SDS011;8539;53.188;8.696;2023-02-23T11:47:31;140.38;;;47.97;;
16845;SDS011;8539;53.188;8.696;2023-02-23T11:50:02;151.63;;;47.80;;
16845;SDS011;8539;53.188;8.696;2023-02-23T11:52:31;134.60;;;45.20;;
16845;SDS011;8539;53.188;8.696;2023-02-23T11:54:58;137.98;;;47.00;;
16845;SDS011;8539;53.188;8.696;2023-02-23T11:57:28;140.40;;;47.17;;
16845;SDS011;8539;53.188;8.696;2023-02-23T11:59:58;146.48;;;49.97;;
16845;SDS011;8539;53.188;8.696;2023-02-23T12:02:33;145.15;;;47.92;;
16845;SDS011;8539;53.188;8.696;2023-02-23T12:05:21;144.80;;;50.28;;
16845;SDS011;8539;53.188;8.696;2023-02-23T12:08:14;168.70;;;49.17;;
16845;SDS011;8539;53.188;8.696;2023-02-23T12:10:46;145.88;;;46.58;;
16845;SDS011;8539;53.188;8.696;2023-02-23T12:13:24;114.90;;;41.63;;
16845;SDS011;8539;53.188;8.696;2023-02-23T12:19:05;110.00;;;40.47;;
16845;SDS011;8539;53.188;8.696;2023-02-23T12:22:10;116.28;;;39.05;;
16845;SDS011;8539;53.188;8.696;2023-02-23T12:24:44;113.00;;;38.80;;
16845;SDS011;8539;53.188;8.696;2023-02-23T12:27:20;112.82;;;39.88;;
16845;SDS011;8539;53.188;8.696;2023-02-23T12:32:24;96.13;;;34.70;;
16845;SDS011;8539;53.188;8.696;2023-02-23T12:35:00;112.78;;;36.75;;
16845;SDS011;8539;53.188;8.696;2023-02-23T12:37:38;98.63;;;34.85;;
16845;SDS011;8539;53.188;8.696;2023-02-23T12:50:55;83.72;;;31.08;;
16845;SDS011;8539;53.188;8.696;2023-02-23T13:04:31;93.88;;;31.83;;
16845;SDS011;8539;53.188;8.696;2023-02-23T13:07:08;82.18;;;31.48;;
16845;SDS011;8539;53.188;8.696;2023-02-23T13:18:50;79.75;;;31.42;;
16845;SDS011;8539;53.188;8.696;2023-02-23T13:24:17;84.57;;;28.83;;
16845;SDS011;8539;53.188;8.696;2023-02-23T13:26:53;71.00;;;26.65;;
16845;SDS011;8539;53.188;8.696;2023-02-23T13:29:40;78.32;;;29.58;;
16845;SDS011;8539;53.188;8.696;2023-02-23T13:32:15;87.97;;;30.80;;
16845;SDS011;8539;53.188;8.696;2023-02-23T13:34:44;74.25;;;29.13;;
16845;SDS011;8539;53.188;8.696;2023-02-23T13:37:13;77.35;;;29.13;;
16845;SDS011;8539;53.188;8.696;2023-02-23T13:50:16;71.68;;;26.42;;
16845;SDS011;8539;53.188;8.696;2023-02-23T13:52:47;79.43;;;28.90;;
16845;SDS011;8539;53.188;8.696;2023-02-23T13:57:54;69.53;;;26.77;;
16845;SDS011;8539;53.188;8.696;2023-02-23T14:00:28;83.68;;;27.52;;
16845;SDS011;8539;53.188;8.696;2023-02-23T14:02:54;69.55;;;26.75;;
16845;SDS011;8539;53.188;8.696;2023-02-23T14:05:22;86.53;;;29.67;;
16845;SDS011;8539;53.188;8.696;2023-02-23T14:07:56;70.13;;;27.42;;
16845;SDS011;8539;53.188;8.696;2023-02-23T14:10:40;62.85;;;24.67;;
16845;SDS011;8539;53.188;8.696;2023-02-23T14:15:48;69.40;;;26.38;;
16845;SDS011;8539;53.188;8.696;2023-02-23T14:18:32;77.20;;;28.42;;
16845;SDS011;8539;53.188;8.696;2023-02-23T14:34:50;62.22;;;23.45;;
16845;SDS011;8539;53.188;8.696;2023-02-23T14:37:30;64.85;;;24.88;;
16845;SDS011;8539;53.188;8.696;2023-02-23T14:40:12;61.53;;;21.85;;
16845;SDS011;8539;53.188;8.696;2023-02-23T14:42:46;55.30;;;23.05;;
16845;SDS011;8539;53.188;8.696;2023-02-23T14:48:08;63.05;;;23.15;;
16845;SDS011;8539;53.188;8.696;2023-02-23T14:50:37;58.58;;;23.30;;
16845;SDS011;8539;53.188;8.696;2023-02-23T14:53:06;60.03;;;26.38;;
16845;SDS011;8539;53.188;8.696;2023-02-23T14:55:43;60.88;;;22.85;;
16845;SDS011;8539;53.188;8.696;2023-02-23T14:58:26;63.30;;;20.95;;
16845;SDS011;8539;53.188;8.696;2023-02-23T15:00:54;56.63;;;22.73;;
16845;SDS011;8539;53.188;8.696;2023-02-23T15:03:21;61.15;;;21.95;;
16845;SDS011;8539;53.188;8.696;2023-02-23T15:05:55;64.75;;;24.27;;
16845;SDS011;8539;53.188;8.696;2023-02-23T15:08:23;55.03;;;22.13;;
16845;SDS011;8539;53.188;8.696;2023-02-23T15:10:57;55.72;;;22.33;;
16845;SDS011;8539;53.188;8.696;2023-02-23T15:13:27;61.70;;;21.55;;
16845;SDS011;8539;53.188;8.696;2023-02-23T15:15:55;64.45;;;21.75;;
16845;SDS011;8539;53.188;8.696;2023-02-23T15:18:27;69.80;;;23.95;;
16845;SDS011;8539;53.188;8.696;2023-02-23T15:21:00;60.72;;;19.83;;
16845;SDS011;8539;53.188;8.696;2023-02-23T15:23:33;43.85;;;18.25;;
16845;SDS011;8539;53.188;8.696;2023-02-23T15:26:18;57.13;;;19.38;;
16845;SDS011;8539;53.188;8.696;2023-02-23T15:31:35;24.17;;;9.63;;
16845;SDS011;8539;53.188;8.696;2023-02-23T15:34:11;30.23;;;8.45;;
16845;SDS011;8539;53.188;8.696;2023-02-23T15:36:37;17.83;;;7.60;;
16845;SDS011;8539;53.188;8.696;2023-02-23T15:39:05;13.65;;;6.07;;
16845;SDS011;8539;53.188;8.696;2023-02-23T15:41:36;16.95;;;5.93;;
16845;SDS011;8539;53.188;8.696;2023-02-23T15:47:09;35.22;;;8.48;;
16845;SDS011;8539;53.188;8.696;2023-02-23T15:52:13;43.47;;;12.32;;
16845;SDS011;8539;53.188;8.696;2023-02-23T15:57:17;38.88;;;8.65;;
16845;SDS011;8539;53.188;8.696;2023-02-23T16:00:37;57.45;;;13.23;;
16845;SDS011;8539;53.188;8.696;2023-02-23T16:03:04;36.35;;;8.02;;
16845;SDS011;8539;53.188;8.696;2023-02-23T16:05:33;51.00;;;7.15;;
16845;SDS011;8539;53.188;8.696;2023-02-23T16:08:17;35.35;;;9.10;;
16845;SDS011;8539;53.188;8.696;2023-02-23T16:10:48;34.72;;;6.55;;
16845;SDS011;8539;53.188;8.696;2023-02-23T16:13:19;34.22;;;8.27;;
16845;SDS011;8539;53.188;8.696;2023-02-23T16:15:47;24.15;;;6.65;;
16845;SDS011;8539;53.188;8.696;2023-02-23T16:18:15;30.25;;;7.30;;
16845;SDS011;8539;53.188;8.696;2023-02-23T16:20:59;34.17;;;8.88;;
16845;SDS011;8539;53.188;8.696;2023-02-23T16:23:28;41.30;;;6.05;;
16845;SDS011;8539;53.188;8.696;2023-02-23T16:26:04;25.80;;;5.95;;
16845;SDS011;8539;53.188;8.696;2023-02-23T16:28:56;29.55;;;6.07;;
16845;SDS011;8539;53.188;8.696;2023-02-23T16:31:43;32.47;;;7.20;;
16845;SDS011;8539;53.188;8.696;2023-02-23T16:34:25;33.08;;;6.30;;
16845;SDS011;8539;53.188;8.696;2023-02-23T16:37:02;33.28;;;6.32;;
16845;SDS011;8539;53.188;8.696;2023-02-23T16:39:40;28.08;;;3.97;;
16845;SDS011;8539;53.188;8.696;2023-02-23T16:42:08;31.42;;;6.55;;
16845;SDS011;8539;53.188;8.696;2023-02-23T16:44:47;27.60;;;5.93;;
16845;SDS011;8539;53.188;8.696;2023-02-23T16:49:49;24.85;;;5.70;;
16845;SDS011;8539;53.188;8.696;2023-02-23T16:52:16;33.15;;;5.05;;
16845;SDS011;8539;53.188;8.696;2023-02-23T16:54:45;28.10;;;6.80;;
16845;SDS011;8539;53.188;8.696;2023-02-23T16:57:25;26.45;;;4.90;;
16845;SDS011;8539;53.188;8.696;2023-02-23T16:59:54;42.08;;;7.25;;
16845;SDS011;8539;53.188;8.696;2023-02-23T17:02:22;31.27;;;6.10;;
16845;SDS011;8539;53.188;8.696;2023-02-23T17:04:48;29.42;;;4.93;;
16845;SDS011;8539;53.188;8.696;2023-02-23T17:07:16;33.22;;;5.43;;
16845;SDS011;8539;53.188;8.696;2023-02-23T17:09:44;26.27;;;5.30;;
16845;SDS011;8539;53.188;8.696;2023-02-23T17:12:10;30.38;;;6.95;;
16845;SDS011;8539;53.188;8.696;2023-02-23T17:14:43;21.75;;;4.93;;
16845;SDS011;8539;53.188;8.696;2023-02-23T17:17:12;17.05;;;4.95;;
16845;SDS011;8539;53.188;8.696;2023-02-23T17:19:42;32.72;;;5.30;;
16845;SDS011;8539;53.188;8.696;2023-02-23T17:22:10;27.23;;;5.22;;
16845;SDS011;8539;53.188;8.696;2023-02-23T17:24:39;29.92;;;5.70;;
16845;SDS011;8539;53.188;8.696;2023-02-23T17:27:05;31.73;;;6.50;;
16845;SDS011;8539;53.188;8.696;2023-02-23T17:29:31;33.65;;;6.95;;
16845;SDS011;8539;53.188;8.696;2023-02-23T17:31:57;27.02;;;3.80;;
16845;SDS011;8539;53.188;8.696;2023-02-23T17:34:24;14.02;;;4.32;;
16845;SDS011;8539;53.188;8.696;2023-02-23T17:36:51;19.30;;;6.03;;
16845;SDS011;8539;53.188;8.696;2023-02-23T17:39:17;20.23;;;3.38;;
16845;SDS011;8539;53.188;8.696;2023-02-23T17:41:43;19.02;;;4.55;;
16845;SDS011;8539;53.188;8.696;2023-02-23T17:44:09;16.15;;;4.63;;
16845;SDS011;8539;53.188;8.696;2023-02-23T17:46:36;21.67;;;5.85;;